createdAt,value
2023-05-10T00:00:10.091Z,43.80
2023-05-10T00:02:36.811Z,62.40
2023-05-10T00:05:03.532Z,40.08
2023-05-10T00:07:30.048Z,46.75
2023-05-10T00:09:56.500Z,43.70
2023-05-10T00:12:22.920Z,49.63
2023-05-10T00:14:49.334Z,45.17
2023-05-10T00:17:15.864Z,38.20
2023-05-10T00:19:42.277Z,47.03
2023-05-10T00:22:08.786Z,45.13
2023-05-10T00:24:35.504Z,42.15
2023-05-10T00:27:01.979Z,41.75
2023-05-10T00:29:29.364Z,54.45
2023-05-10T00:31:55.896Z,41.13
2023-05-10T00:34:22.371Z,45.08
2023-05-10T00:36:48.957Z,58.58
2023-05-10T00:39:15.430Z,49.00
2023-05-10T00:41:41.844Z,64.32
2023-05-10T00:44:08.272Z,58.88
2023-05-10T00:46:34.885Z,56.88
2023-05-10T00:49:01.411Z,73.68
2023-05-10T00:51:27.873Z,53.78
2023-05-10T00:53:54.733Z,72.63
2023-05-10T00:56:23.944Z,57.10
2023-05-10T00:58:50.523Z,84.63
2023-05-10T01:01:16.980Z,77.97
2023-05-10T01:03:43.771Z,67.85
2023-05-10T01:06:10.998Z,71.55
2023-05-10T01:08:37.740Z,80.55
2023-05-10T01:11:04.168Z,80.95
2023-05-10T01:13:40.443Z,82.00
2023-05-10T01:16:07.668Z,75.40
2023-05-10T01:18:36.683Z,65.00
2023-05-10T01:21:11.689Z,79.78
2023-05-10T01:23:44.225Z,74.35
2023-05-10T01:26:28.836Z,70.78
2023-05-10T01:32:07.016Z,65.13
2023-05-10T01:34:37.037Z,68.32
2023-05-10T01:37:10.400Z,70.13
2023-05-10T01:39:49.794Z,81.55
2023-05-10T01:42:19.066Z,75.70
2023-05-10T01:44:58.126Z,89.63
2023-05-10T01:47:27.550Z,76.28
2023-05-10T01:49:55.978Z,80.25
2023-05-10T01:52:33.494Z,77.50
2023-05-10T01:55:04.049Z,90.82
2023-05-10T01:57:34.115Z,103.30
2023-05-10T02:00:03.935Z,83.38
2023-05-10T02:04:58.166Z,67.53
2023-05-10T02:07:25.155Z,87.07
2023-05-10T02:09:52.196Z,78.07
2023-05-10T02:12:19.150Z,102.97
2023-05-10T02:14:46.120Z,112.03
2023-05-10T02:17:13.019Z,89.25
2023-05-10T02:19:42.140Z,82.32
2023-05-10T02:22:10.280Z,110.10
2023-05-10T02:24:37.535Z,102.65
2023-05-10T02:27:04.850Z,115.15
2023-05-10T02:29:32.352Z,90.90
2023-05-10T02:31:59.967Z,103.63
2023-05-10T02:34:27.233Z,97.65
2023-05-10T02:36:54.404Z,88.22
2023-05-10T02:39:22.050Z,98.40
2023-05-10T02:41:49.854Z,108.65
2023-05-10T02:44:18.927Z,121.07
2023-05-10T02:46:46.132Z,112.80
2023-05-10T02:49:12.655Z,112.55
2023-05-10T02:51:46.087Z,95.70
2023-05-10T02:54:16.699Z,113.47
2023-05-10T02:56:46.171Z,128.48
2023-05-10T02:59:12.759Z,104.97
2023-05-10T03:01:39.458Z,89.47
2023-05-10T03:04:06.111Z,92.70
2023-05-10T03:06:32.659Z,105.95
2023-05-10T03:08:59.200Z,104.03
2023-05-10T03:12:04.663Z,89.53
2023-05-10T03:14:34.101Z,144.13
2023-05-10T03:17:16.889Z,116.32
2023-05-10T03:19:54.535Z,113.10
2023-05-10T03:22:42.174Z,124.93
2023-05-10T03:25:09.447Z,138.05
2023-05-10T03:27:37.630Z,130.60
2023-05-10T03:30:05.579Z,120.78
2023-05-10T03:32:33.525Z,140.68
2023-05-10T03:34:59.919Z,137.00
2023-05-10T03:37:26.335Z,100.65
2023-05-10T03:39:52.752Z,129.88
2023-05-10T03:42:19.234Z,112.18
2023-05-10T03:44:45.750Z,105.82
2023-05-10T03:47:12.241Z,121.50
2023-05-10T03:49:38.657Z,105.35
2023-05-10T03:52:06.312Z,104.57
2023-05-10T03:54:33.198Z,112.03
2023-05-10T03:56:59.654Z,113.45
2023-05-10T03:59:26.154Z,117.10
2023-05-10T04:01:52.813Z,98.10
2023-05-10T04:04:21.732Z,98.78
2023-05-10T04:06:48.265Z,101.80
2023-05-10T04:09:14.903Z,117.72
2023-05-10T04:11:41.371Z,104.10
2023-05-10T04:14:07.768Z,132.13
2023-05-10T04:16:34.209Z,110.90
2023-05-10T04:19:00.981Z,102.43
2023-05-10T04:21:27.372Z,104.95
2023-05-10T04:23:53.879Z,106.13
2023-05-10T04:26:21.162Z,94.47
2023-05-10T04:28:47.674Z,93.25
2023-05-10T04:31:14.162Z,98.47
2023-05-10T04:33:41.512Z,110.95
2023-05-10T04:36:08.238Z,80.25
2023-05-10T04:38:35.364Z,101.50
2023-05-10T04:41:06.533Z,94.22
2023-05-10T04:43:33.028Z,103.13
2023-05-10T04:45:59.562Z,80.13
2023-05-10T04:48:26.036Z,71.93
2023-05-10T04:50:52.505Z,78.28
2023-05-10T04:53:18.960Z,83.22
2023-05-10T04:55:45.335Z,74.60
2023-05-10T04:58:11.738Z,80.63
2023-05-10T05:00:38.200Z,72.45
2023-05-10T05:03:04.755Z,78.55
2023-05-10T05:05:31.234Z,63.40
2023-05-10T05:07:57.705Z,77.63
2023-05-10T05:10:24.158Z,75.40
2023-05-10T05:12:50.767Z,81.25
2023-05-10T05:15:17.853Z,66.70
2023-05-10T05:17:44.734Z,82.05
2023-05-10T05:20:11.727Z,79.85
2023-05-10T05:22:38.571Z,75.95
2023-05-10T05:25:05.577Z,75.95
2023-05-10T05:27:32.368Z,89.50
2023-05-10T05:29:58.898Z,75.80
2023-05-10T05:32:26.182Z,73.82
2023-05-10T05:34:52.802Z,70.30
2023-05-10T05:37:20.829Z,82.68
2023-05-10T05:39:47.554Z,80.40
2023-05-10T05:42:14.245Z,78.82
2023-05-10T05:44:40.730Z,70.28
2023-05-10T05:47:07.511Z,72.93
2023-05-10T05:49:34.027Z,53.85
2023-05-10T05:52:04.225Z,51.13
2023-05-10T05:54:31.708Z,44.17
2023-05-10T05:57:01.050Z,47.83
2023-05-10T05:59:28.314Z,44.00
2023-05-10T06:01:54.741Z,41.47
2023-05-10T06:04:21.419Z,44.42
2023-05-10T06:06:47.908Z,39.55
2023-05-10T06:09:14.358Z,42.72
2023-05-10T06:11:40.870Z,38.35
2023-05-10T06:14:08.733Z,43.80
2023-05-10T06:16:35.769Z,36.03
2023-05-10T06:19:02.563Z,36.35
2023-05-10T06:21:29.075Z,37.28
2023-05-10T06:23:55.608Z,37.65
2023-05-10T06:26:22.179Z,36.58
2023-05-10T06:28:48.875Z,29.83
2023-05-10T06:31:15.429Z,32.10
2023-05-10T06:33:41.916Z,29.00
2023-05-10T06:36:08.442Z,33.40
2023-05-10T06:38:34.991Z,31.52
2023-05-10T06:41:01.767Z,36.17
2023-05-10T06:43:29.642Z,33.95
2023-05-10T06:45:56.204Z,36.78
2023-05-10T06:48:22.940Z,38.75
2023-05-10T06:50:49.505Z,36.03
2023-05-10T06:53:16.350Z,39.88
2023-05-10T06:55:42.768Z,43.72
2023-05-10T06:58:09.242Z,42.92
2023-05-10T07:00:35.845Z,40.25
2023-05-10T07:03:02.494Z,32.05
2023-05-10T07:05:29.263Z,37.70
2023-05-10T07:07:55.815Z,33.28
2023-05-10T07:10:22.313Z,34.47
2023-05-10T07:12:48.879Z,37.67
2023-05-10T07:15:17.092Z,33.78
2023-05-10T07:17:45.925Z,34.33
2023-05-10T07:20:13.129Z,35.22
2023-05-10T07:22:39.577Z,32.53
2023-05-10T07:25:06.912Z,30.25
2023-05-10T07:27:33.604Z,28.45
2023-05-10T07:30:00.028Z,27.80
2023-05-10T07:32:26.797Z,27.38
2023-05-10T07:34:53.355Z,28.58
2023-05-10T07:37:19.890Z,23.73
2023-05-10T07:39:46.491Z,26.08
2023-05-10T07:42:12.913Z,25.73
2023-05-10T07:44:39.317Z,24.35
2023-05-10T07:47:05.780Z,22.02
2023-05-10T07:49:32.278Z,22.92
2023-05-10T07:51:58.788Z,23.55
2023-05-10T07:54:25.330Z,20.38
2023-05-10T07:56:51.963Z,20.15
2023-05-10T07:59:19.002Z,22.13
2023-05-10T08:01:45.628Z,24.10
2023-05-10T08:04:12.686Z,23.88
2023-05-10T08:06:39.904Z,23.70
2023-05-10T08:09:06.470Z,22.85
2023-05-10T08:11:34.856Z,20.67
2023-05-10T08:14:01.558Z,23.58
2023-05-10T08:16:28.469Z,21.77
2023-05-10T08:18:56.317Z,23.10
2023-05-10T08:21:22.975Z,24.55
2023-05-10T08:23:50.050Z,22.55
2023-05-10T08:26:16.561Z,20.85
2023-05-10T08:28:43.058Z,21.27
2023-05-10T08:31:09.602Z,21.52
2023-05-10T08:33:36.075Z,16.98
2023-05-10T08:36:02.509Z,17.42
2023-05-10T08:38:29.096Z,16.05
2023-05-10T08:40:59.772Z,16.23
2023-05-10T08:43:30.894Z,15.00
2023-05-10T08:45:58.315Z,17.17
2023-05-10T08:48:26.031Z,14.60
2023-05-10T08:50:55.955Z,14.50
2023-05-10T08:53:24.863Z,14.60
2023-05-10T08:55:51.667Z,11.27
2023-05-10T08:58:20.698Z,8.60
2023-05-10T09:00:49.454Z,10.70
2023-05-10T09:03:16.629Z,9.80
2023-05-10T09:05:43.246Z,11.20
2023-05-10T09:08:09.903Z,13.45
2023-05-10T09:10:36.564Z,10.35
2023-05-10T09:13:03.314Z,10.40
2023-05-10T09:15:29.780Z,12.10
2023-05-10T09:17:56.838Z,8.43
2023-05-10T09:20:23.524Z,9.23
2023-05-10T09:22:50.625Z,8.85
2023-05-10T09:25:18.126Z,9.60
2023-05-10T09:27:49.239Z,10.50
2023-05-10T09:30:29.449Z,10.30
2023-05-10T09:32:57.295Z,9.25
2023-05-10T09:35:28.821Z,9.32
2023-05-10T09:37:57.920Z,9.13
2023-05-10T09:40:25.862Z,11.95
2023-05-10T09:43:07.837Z,10.05
2023-05-10T09:48:05.770Z,12.20
2023-05-10T09:50:32.329Z,13.43
2023-05-10T09:53:04.274Z,10.13
2023-05-10T09:55:40.761Z,9.98
2023-05-10T09:58:13.399Z,11.77
2023-05-10T10:00:44.462Z,8.68
2023-05-10T10:03:20.619Z,8.38
2023-05-10T10:05:48.362Z,6.30
2023-05-10T10:08:15.627Z,8.90
2023-05-10T10:10:42.660Z,7.70
2023-05-10T10:13:09.252Z,7.75
2023-05-10T10:15:36.024Z,8.73
2023-05-10T10:18:04.592Z,9.32
2023-05-10T10:20:31.374Z,7.90
2023-05-10T10:22:58.067Z,9.65
2023-05-10T10:25:24.656Z,8.75
2023-05-10T10:27:54.147Z,11.48
2023-05-10T10:30:35.832Z,7.38
2023-05-10T10:33:27.151Z,10.00
2023-05-10T10:35:55.788Z,10.75
2023-05-10T10:38:22.965Z,8.85
2023-05-10T10:40:57.459Z,9.27
2023-05-10T10:43:25.618Z,9.70
2023-05-10T10:46:14.950Z,10.68
2023-05-10T10:48:43.104Z,9.60
2023-05-10T10:51:10.844Z,6.93
2023-05-10T10:53:39.245Z,8.85
2023-05-10T10:56:14.409Z,7.65
2023-05-10T10:58:41.264Z,9.18
2023-05-10T11:01:16.687Z,7.00
2023-05-10T11:04:01.983Z,7.40
2023-05-10T11:06:35.196Z,8.88
2023-05-10T11:09:09.437Z,10.70
2023-05-10T11:11:37.045Z,8.25
2023-05-10T11:14:05.209Z,7.25
2023-05-10T11:16:42.301Z,7.25
2023-05-10T11:19:11.639Z,7.00
2023-05-10T11:22:14.613Z,8.25
2023-05-10T11:24:41.104Z,5.65
2023-05-10T11:27:07.727Z,6.80
2023-05-10T11:29:34.210Z,8.13
2023-05-10T11:32:00.971Z,7.47
2023-05-10T11:34:34.270Z,6.55
2023-05-10T11:37:00.774Z,8.93
2023-05-10T11:39:28.878Z,7.40
2023-05-10T11:41:55.653Z,6.97
2023-05-10T11:44:22.060Z,6.75
2023-05-10T11:46:48.620Z,10.52
2023-05-10T11:49:15.360Z,7.13
2023-05-10T11:51:43.709Z,5.95
2023-05-10T11:54:11.655Z,7.18
2023-05-10T11:56:41.723Z,8.93
2023-05-10T11:59:09.054Z,7.43
2023-05-10T12:01:36.182Z,6.18
2023-05-10T12:04:03.084Z,5.85
2023-05-10T12:06:32.190Z,7.47
2023-05-10T12:08:59.293Z,6.10
2023-05-10T12:11:27.074Z,12.80
2023-05-10T12:13:54.091Z,7.47
2023-05-10T12:16:25.725Z,6.82
2023-05-10T12:18:53.396Z,5.60
2023-05-10T12:21:21.164Z,4.03
2023-05-10T12:23:49.240Z,5.65
2023-05-10T12:26:15.909Z,7.10
2023-05-10T12:28:42.433Z,4.38
2023-05-10T12:31:09.144Z,4.88
2023-05-10T12:33:43.790Z,4.30
2023-05-10T12:36:14.728Z,7.10
2023-05-10T12:38:48.763Z,5.22
2023-05-10T12:41:19.514Z,4.93
2023-05-10T12:43:49.029Z,5.00
2023-05-10T12:48:44.682Z,9.20
2023-05-10T12:51:12.768Z,4.65
2023-05-10T12:53:45.096Z,4.75
2023-05-10T12:56:12.612Z,10.07
2023-05-10T12:58:39.334Z,5.40
2023-05-10T13:01:06.172Z,6.63
2023-05-10T13:03:33.062Z,6.68
2023-05-10T13:05:59.697Z,7.78
2023-05-10T13:08:26.385Z,6.15
2023-05-10T13:10:52.992Z,5.18
2023-05-10T13:13:19.391Z,5.53
2023-05-10T13:15:45.931Z,5.82
2023-05-10T13:18:12.478Z,6.10
2023-05-10T13:20:39.187Z,6.63
2023-05-10T13:23:05.698Z,8.65
2023-05-10T13:25:32.176Z,14.55
2023-05-10T13:27:58.603Z,15.52
2023-05-10T13:30:25.025Z,14.50
2023-05-10T13:32:51.770Z,17.30
2023-05-10T13:35:18.229Z,15.25
2023-05-10T13:37:44.754Z,16.10
2023-05-10T13:40:11.603Z,17.95
2023-05-10T13:42:38.441Z,16.88
2023-05-10T13:45:05.407Z,18.55
2023-05-10T13:47:31.989Z,17.65
2023-05-10T13:49:58.690Z,20.40
2023-05-10T13:52:25.162Z,19.38
2023-05-10T13:54:53.201Z,21.13
2023-05-10T13:57:19.696Z,19.13
2023-05-10T13:59:46.155Z,19.98
2023-05-10T14:02:14.130Z,18.50
2023-05-10T14:04:40.672Z,19.65
2023-05-10T14:07:07.172Z,20.38
2023-05-10T14:09:33.586Z,19.60
2023-05-10T14:12:00.026Z,17.33
2023-05-10T14:14:26.801Z,15.60
2023-05-10T14:16:53.200Z,14.63
2023-05-10T14:19:20.049Z,16.02
2023-05-10T14:21:46.653Z,17.95
2023-05-10T14:24:13.076Z,16.02
2023-05-10T14:26:39.705Z,16.15
2023-05-10T14:29:06.097Z,16.67
2023-05-10T14:31:32.817Z,13.80
2023-05-10T14:34:00.057Z,16.90
2023-05-10T14:36:26.708Z,14.48
2023-05-10T14:38:53.223Z,15.25
2023-05-10T14:41:19.689Z,15.82
2023-05-10T14:43:46.853Z,14.95
2023-05-10T14:46:13.522Z,13.45
2023-05-10T14:48:39.959Z,13.70
2023-05-10T14:51:06.408Z,14.48
2023-05-10T14:53:33.465Z,15.85
2023-05-10T14:56:02.083Z,14.68
2023-05-10T14:58:28.840Z,15.57
2023-05-10T15:00:55.365Z,15.93
2023-05-10T15:03:22.388Z,14.80
2023-05-10T15:05:49.234Z,14.57
2023-05-10T15:08:15.739Z,13.77
2023-05-10T15:10:42.513Z,12.52
2023-05-10T15:13:08.913Z,12.38
2023-05-10T15:15:35.337Z,11.18
2023-05-10T15:18:01.807Z,12.30
2023-05-10T15:20:28.291Z,11.15
2023-05-10T15:22:54.848Z,13.13
2023-05-10T15:25:21.405Z,10.55
2023-05-10T15:27:47.804Z,11.18
2023-05-10T15:30:14.492Z,9.98
2023-05-10T15:32:41.457Z,14.38
2023-05-10T15:35:11.308Z,10.90
2023-05-10T15:37:38.860Z,11.52
2023-05-10T15:40:05.979Z,11.90
2023-05-10T15:42:32.794Z,9.85
2023-05-10T15:44:59.557Z,11.48
2023-05-10T15:47:26.802Z,12.30
2023-05-10T15:49:53.386Z,13.40
2023-05-10T15:52:21.516Z,12.13
2023-05-10T15:54:47.984Z,12.43
2023-05-10T15:57:14.426Z,10.02
2023-05-10T15:59:40.894Z,11.30
2023-05-10T16:02:08.715Z,10.73
2023-05-10T16:04:35.266Z,9.00
2023-05-10T16:07:01.733Z,9.18
2023-05-10T16:09:28.398Z,11.32
2023-05-10T16:11:56.726Z,8.88
2023-05-10T16:14:24.578Z,8.77
2023-05-10T16:16:51.570Z,7.68
2023-05-10T16:19:18.486Z,9.48
2023-05-10T16:21:45.270Z,9.75
2023-05-10T16:24:11.711Z,6.18
2023-05-10T16:26:40.984Z,8.13
2023-05-10T16:29:08.595Z,8.02
2023-05-10T16:31:35.486Z,7.75
2023-05-10T16:34:04.695Z,7.05
2023-05-10T16:36:31.532Z,8.65
2023-05-10T16:38:58.816Z,7.15
2023-05-10T16:41:25.819Z,6.15
2023-05-10T16:43:52.459Z,7.63
2023-05-10T16:46:19.168Z,6.07
2023-05-10T16:48:46.020Z,6.30
2023-05-10T16:51:12.494Z,7.47
2023-05-10T16:53:38.935Z,8.60
2023-05-10T16:56:05.675Z,7.50
2023-05-10T16:58:32.245Z,6.15
2023-05-10T17:00:58.780Z,7.38
2023-05-10T17:03:25.342Z,8.77
2023-05-10T17:05:51.832Z,7.70
2023-05-10T17:08:18.258Z,8.80
2023-05-10T17:10:44.737Z,6.95
2023-05-10T17:13:11.384Z,8.90
2023-05-10T17:15:38.750Z,7.50
2023-05-10T17:18:06.947Z,8.45
2023-05-10T17:20:34.258Z,7.75
2023-05-10T17:23:02.628Z,7.97
2023-05-10T17:25:29.224Z,8.80
2023-05-10T17:27:55.657Z,9.07
2023-05-10T17:30:26.346Z,10.00
2023-05-10T17:32:54.143Z,8.70
2023-05-10T17:35:21.487Z,8.32
2023-05-10T17:37:48.128Z,8.55
2023-05-10T17:40:14.664Z,8.50
2023-05-10T17:42:41.765Z,9.10
2023-05-10T17:45:08.813Z,10.55
2023-05-10T17:47:35.464Z,9.00
2023-05-10T17:50:01.996Z,9.93
2023-05-10T17:52:31.346Z,9.68
2023-05-10T17:54:59.831Z,10.95
2023-05-10T17:57:26.303Z,13.25
2023-05-10T17:59:52.901Z,11.40
2023-05-10T18:02:19.329Z,10.25
2023-05-10T18:04:46.048Z,13.15
2023-05-10T18:07:12.594Z,13.10
2023-05-10T18:09:39.022Z,12.82
2023-05-10T18:12:06.101Z,11.18
2023-05-10T18:14:40.446Z,12.45
2023-05-10T18:17:08.211Z,11.50
2023-05-10T18:19:34.776Z,12.88
2023-05-10T18:22:01.207Z,13.68
2023-05-10T18:24:38.212Z,12.98
2023-05-10T18:27:05.864Z,13.00
2023-05-10T18:29:32.603Z,15.57
2023-05-10T18:31:59.096Z,13.10
2023-05-10T18:34:25.640Z,14.65
2023-05-10T18:36:52.475Z,13.23
2023-05-10T18:39:19.130Z,13.05
2023-05-10T18:41:45.821Z,14.27
2023-05-10T18:44:12.320Z,16.67
2023-05-10T18:46:39.047Z,13.43
2023-05-10T18:49:06.444Z,15.55
2023-05-10T18:51:32.974Z,14.10
2023-05-10T18:53:59.445Z,14.20
2023-05-10T18:56:25.959Z,12.65
2023-05-10T18:58:52.682Z,14.13
2023-05-10T19:01:19.253Z,13.48
2023-05-10T19:03:45.822Z,15.60
2023-05-10T19:06:12.227Z,11.60
2023-05-10T19:08:38.699Z,16.77
2023-05-10T19:11:05.456Z,16.17
2023-05-10T19:13:31.896Z,15.27
2023-05-10T19:16:16.585Z,14.68
2023-05-10T19:18:45.866Z,14.52
2023-05-10T19:21:12.679Z,16.33
2023-05-10T19:23:40.166Z,16.00
2023-05-10T19:26:06.711Z,16.73
2023-05-10T19:28:34.218Z,16.45
2023-05-10T19:31:01.826Z,18.50
2023-05-10T19:33:28.450Z,17.20
2023-05-10T19:35:55.124Z,15.68
2023-05-10T19:38:22.415Z,15.80
2023-05-10T19:40:50.193Z,13.93
2023-05-10T19:43:17.147Z,14.95
2023-05-10T19:45:43.700Z,18.75
2023-05-10T19:48:11.081Z,17.77
2023-05-10T19:50:38.516Z,12.85
2023-05-10T19:53:05.191Z,13.80
2023-05-10T19:55:32.267Z,17.05
2023-05-10T19:58:00.702Z,17.02
2023-05-10T20:00:27.657Z,14.85
2023-05-10T20:02:54.401Z,17.30
2023-05-10T20:05:21.474Z,17.38
2023-05-10T20:07:48.006Z,15.25
2023-05-10T20:10:15.385Z,15.05
2023-05-10T20:12:41.867Z,17.10
2023-05-10T20:15:08.547Z,15.95
2023-05-10T20:17:35.702Z,17.27
2023-05-10T20:20:02.220Z,14.20
2023-05-10T20:22:28.622Z,18.40
2023-05-10T20:24:56.248Z,15.80
2023-05-10T20:27:23.355Z,15.70
2023-05-10T20:29:49.802Z,15.93
2023-05-10T20:32:16.306Z,13.68
2023-05-10T20:34:42.796Z,15.57
2023-05-10T20:37:09.390Z,14.10
2023-05-10T20:39:35.789Z,16.27
2023-05-10T20:42:02.355Z,14.02
2023-05-10T20:44:28.867Z,15.27
2023-05-10T20:46:55.372Z,15.48
2023-05-10T20:49:21.815Z,15.50
2023-05-10T20:51:48.327Z,16.77
2023-05-10T20:54:14.805Z,14.20
2023-05-10T20:56:41.276Z,15.13
2023-05-10T20:59:07.722Z,16.10
2023-05-10T21:01:34.119Z,16.15
2023-05-10T21:04:00.734Z,21.83
2023-05-10T21:06:27.297Z,26.95
2023-05-10T21:08:53.720Z,17.40
2023-05-10T21:11:20.795Z,19.23
2023-05-10T21:13:47.482Z,16.27
2023-05-10T21:16:13.979Z,20.60
2023-05-10T21:18:40.475Z,17.70
2023-05-10T21:21:06.964Z,16.67
2023-05-10T21:23:34.693Z,15.00
2023-05-10T21:26:03.139Z,15.18
2023-05-10T21:28:29.647Z,16.17
2023-05-10T21:30:56.756Z,15.02
2023-05-10T21:33:23.789Z,17.67
2023-05-10T21:35:50.549Z,16.08
2023-05-10T21:38:17.083Z,13.35
2023-05-10T21:40:43.549Z,15.48
2023-05-10T21:43:11.144Z,14.05
2023-05-10T21:45:37.703Z,14.65
2023-05-10T21:48:04.196Z,13.18
2023-05-10T21:50:30.834Z,16.10
2023-05-10T21:52:57.695Z,13.88
2023-05-10T21:55:24.247Z,15.43
2023-05-10T21:57:51.139Z,14.55
2023-05-10T22:00:19.318Z,16.83
2023-05-10T22:02:46.734Z,17.52
2023-05-10T22:05:13.519Z,18.00
2023-05-10T22:07:39.966Z,17.70
2023-05-10T22:10:08.129Z,16.33
2023-05-10T22:12:34.618Z,18.27
2023-05-10T22:15:10.313Z,17.33
2023-05-10T22:17:38.576Z,15.90
2023-05-10T22:20:07.188Z,18.08
2023-05-10T22:22:33.606Z,16.98
2023-05-10T22:25:00.038Z,17.90
2023-05-10T22:27:26.572Z,20.80
2023-05-10T22:29:53.117Z,19.17
2023-05-10T22:32:19.749Z,20.70
2023-05-10T22:34:46.240Z,18.83
2023-05-10T22:37:14.771Z,18.55
2023-05-10T22:39:41.348Z,19.00
2023-05-10T22:42:08.107Z,22.80
2023-05-10T22:44:34.598Z,21.75
2023-05-10T22:47:01.261Z,21.65
2023-05-10T22:49:27.718Z,21.27
2023-05-10T22:51:54.204Z,18.77
2023-05-10T22:54:20.757Z,18.02
2023-05-10T22:56:47.328Z,19.73
2023-05-10T22:59:13.754Z,20.00
2023-05-10T23:01:40.811Z,21.77
2023-05-10T23:04:07.527Z,21.30
2023-05-10T23:06:34.182Z,22.08
2023-05-10T23:09:00.649Z,21.35
2023-05-10T23:11:27.041Z,25.55
2023-05-10T23:13:53.482Z,23.42
2023-05-10T23:16:19.922Z,20.77
2023-05-10T23:18:46.427Z,19.27
2023-05-10T23:21:12.922Z,20.00
2023-05-10T23:23:39.408Z,23.88
2023-05-10T23:26:06.072Z,19.92
2023-05-10T23:28:32.486Z,19.52
2023-05-10T23:30:59.071Z,17.02
2023-05-10T23:33:26.588Z,20.52
2023-05-10T23:35:54.258Z,22.55
2023-05-10T23:38:21.280Z,20.88
2023-05-10T23:40:51.550Z,21.25
2023-05-10T23:43:19.712Z,19.92
2023-05-10T23:45:54.044Z,23.73
2023-05-10T23:48:20.803Z,22.63
2023-05-10T23:50:47.266Z,22.27
2023-05-10T23:53:13.741Z,21.25
2023-05-10T23:55:40.163Z,27.55
2023-05-10T23:58:07.660Z,24.25
